Nimrod, MN (56478)

5:20 PM CDT on July 23, 2016 (GMT -0500)
KMNVERND2 | | Change Station

Elev 1330 ft 46.59 °N, 94.73 °W | Updated 6 seconds ago

Scattered Clouds
Scattered Clouds
82.4 °F
Feels Like 85 °F
N
9.2
Wind Variable Wind from SSW
Gusts 9.2 mph

Today
High -- | Low -- °F
--% Chance of Precip.
Yesterday
High -- | Low -- °F
Precip. -- in
Pressure 29.76 in
Visibility 10.0 miles
Clouds Scattered Clouds 2000 ft
Heat Index 85 °F
Dew Point 67 °F
Humidity 60%
Rainfall 0.17 in
Snow Depth Not available.
5:50 AM 9:01 PM
Waning Gibbous, 82% visible
METAR KSAZ 232214Z AUTO 15010G18KT 10SM SCT020 26/20 A2976 RMK AO2
Pressure 29.76 in
Visibility 10.0 miles
Clouds Scattered Clouds 2000 ft
Heat Index 85 °F
Dew Point 67 °F
Humidity 60%
Rainfall 0.17 in
Snow Depth Not available.
5:50 AM 9:01 PM
Waning Gibbous, 82% visible
METAR KSAZ 232214Z AUTO 15010G18KT 10SM SCT020 26/20 A2976 RMK AO2

10-Day Weather Forecast

Almanac

Astronomy

Jul. 23, 2016 Rise Set
Actual Time
Civil Twilight
Nautical Twilight
Astronomical Twilight
Moon
Length of Visible Light
Length of Day
Tomorrow will be .
, % of the Moon is Illuminated

Today's Extremes

State Highs State Lows

Community

WunderPhotos

Upload Photos

1,926,940 photos uploaded!

WunderBlog® & News

Nearby

Air Quality

  Air Quality AQ Index Pollutant
Not available.

Snow Depth

Station Depth Elevation

Earthquake Activity

City Distance Mag. Time & Date
Minimum magnitude displayed is 2.5.

Coastal Water Temperatures

Place Temperature

Stations

Nearby Weather Stations

Station Location Temp. Windchill Dew Point Humidity Wind Precip. Elev Updated Type
                   

Watches & Warnings

There are currently no watches in effect.